createdAt,value
2019-02-18T00:00:29.865Z,5.20
2019-02-18T00:02:58.393Z,5.20
2019-02-18T00:05:27.041Z,5.10
2019-02-18T00:07:55.644Z,5.10
2019-02-18T00:10:25.767Z,5.10
2019-02-18T00:12:54.464Z,5.00
2019-02-18T00:15:23.073Z,5.00
2019-02-18T00:17:51.698Z,5.00
2019-02-18T00:20:20.242Z,5.00
2019-02-18T00:22:48.885Z,4.90
2019-02-18T00:25:17.409Z,4.90
2019-02-18T00:27:46.035Z,4.90
2019-02-18T00:30:14.801Z,4.90
2019-02-18T00:32:43.361Z,4.90
2019-02-18T00:35:12.048Z,4.80
2019-02-18T00:37:40.860Z,4.80
2019-02-18T00:40:10.298Z,4.80
2019-02-18T00:42:38.911Z,4.70
2019-02-18T00:45:12.258Z,4.70
2019-02-18T00:47:40.964Z,4.70
2019-02-18T00:50:10.593Z,4.70
2019-02-18T00:52:39.147Z,4.70
2019-02-18T00:55:08.722Z,4.60
2019-02-18T00:57:37.358Z,4.60
2019-02-18T01:00:09.519Z,4.60
2019-02-18T01:02:38.225Z,4.50
2019-02-18T01:05:07.706Z,4.50
2019-02-18T01:07:36.413Z,4.60
2019-02-18T01:10:07.731Z,4.50
2019-02-18T01:12:36.332Z,4.50
2019-02-18T01:15:07.685Z,4.50
2019-02-18T01:17:36.243Z,4.50
2019-02-18T01:20:07.554Z,4.40
2019-02-18T01:22:36.153Z,4.50
2019-02-18T01:25:06.392Z,4.40
2019-02-18T01:27:34.927Z,4.30
2019-02-18T01:30:04.811Z,4.30
2019-02-18T01:32:33.338Z,4.30
2019-02-18T01:35:01.922Z,4.30
2019-02-18T01:37:30.536Z,4.30
2019-02-18T01:39:59.233Z,4.30
2019-02-18T01:42:27.847Z,4.30
2019-02-18T01:44:56.537Z,4.30
2019-02-18T01:47:25.126Z,4.20
2019-02-18T01:49:53.765Z,4.20
2019-02-18T01:52:22.351Z,4.10
2019-02-18T01:54:50.961Z,4.10
2019-02-18T01:57:19.636Z,4.00
2019-02-18T01:59:48.141Z,4.10
2019-02-18T02:02:16.772Z,4.10
2019-02-18T02:04:45.390Z,4.00
2019-02-18T02:07:13.964Z,4.00
2019-02-18T02:09:42.662Z,4.00
2019-02-18T02:12:11.243Z,4.00
2019-02-18T02:14:39.767Z,4.00
2019-02-18T02:17:08.333Z,4.00
2019-02-18T02:19:37.118Z,4.00
2019-02-18T02:22:05.775Z,4.00
2019-02-18T02:24:34.306Z,3.90
2019-02-18T02:27:02.850Z,3.90
2019-02-18T02:29:31.691Z,3.90
2019-02-18T02:32:00.233Z,3.90
2019-02-18T02:34:28.794Z,3.90
2019-02-18T02:36:57.404Z,3.80
2019-02-18T02:39:26.046Z,3.80
2019-02-18T02:41:54.709Z,3.80
2019-02-18T02:44:23.325Z,3.80
2019-02-18T02:46:52.799Z,3.80
2019-02-18T02:49:21.352Z,3.70
2019-02-18T02:51:49.892Z,3.70
2019-02-18T02:54:19.178Z,3.70
2019-02-18T02:56:47.802Z,3.70
2019-02-18T02:59:16.522Z,3.60
2019-02-18T03:01:45.233Z,3.60
2019-02-18T03:04:13.778Z,3.60
2019-02-18T03:06:42.302Z,3.60
2019-02-18T03:09:10.881Z,3.60
2019-02-18T03:11:39.426Z,3.60
2019-02-18T03:14:08.048Z,3.60
2019-02-18T03:16:36.733Z,3.60
2019-02-18T03:19:05.346Z,3.50
2019-02-18T03:21:34.917Z,3.50
2019-02-18T03:24:03.454Z,3.50
2019-02-18T03:26:32.015Z,3.50
2019-02-18T03:29:18.694Z,3.50
2019-02-18T03:31:47.308Z,3.50
2019-02-18T03:34:28.302Z,3.50
2019-02-18T03:36:56.805Z,3.50
2019-02-18T03:39:25.387Z,3.50
2019-02-18T03:41:54.018Z,3.50
2019-02-18T03:44:22.545Z,3.50
2019-02-18T03:46:51.093Z,3.40
2019-02-18T03:49:19.778Z,3.40
2019-02-18T03:51:48.349Z,3.40
2019-02-18T03:54:16.895Z,3.40
2019-02-18T03:56:45.788Z,3.40
2019-02-18T03:59:14.462Z,3.40
2019-02-18T04:01:43.151Z,3.30
2019-02-18T04:04:11.824Z,3.30
2019-02-18T04:06:40.451Z,3.30
2019-02-18T04:09:09.081Z,3.30
2019-02-18T04:11:37.774Z,3.30
2019-02-18T04:14:06.435Z,3.20
2019-02-18T04:16:34.966Z,3.20
2019-02-18T04:19:03.541Z,3.20
2019-02-18T04:21:32.144Z,3.30
2019-02-18T04:24:00.695Z,3.20
2019-02-18T04:26:29.300Z,3.20
2019-02-18T04:28:57.871Z,3.20
2019-02-18T04:31:26.418Z,3.20
2019-02-18T04:33:55.117Z,3.20
2019-02-18T04:36:23.818Z,3.20
2019-02-18T04:38:59.662Z,3.10
2019-02-18T04:41:28.205Z,3.10
2019-02-18T04:43:56.821Z,3.10
2019-02-18T04:46:25.380Z,3.10
2019-02-18T04:48:54.015Z,3.10
2019-02-18T04:51:31.101Z,3.10
2019-02-18T04:53:59.721Z,3.10
2019-02-18T04:56:28.357Z,3.00
2019-02-18T04:58:56.991Z,3.00
2019-02-18T05:01:25.651Z,3.00
2019-02-18T05:03:54.322Z,2.90
2019-02-18T05:06:25.377Z,3.00
2019-02-18T05:08:53.206Z,3.00
2019-02-18T05:11:21.802Z,3.00
2019-02-18T05:13:50.335Z,3.00
2019-02-18T05:16:19.024Z,3.00
2019-02-18T05:18:47.732Z,3.00
2019-02-18T05:21:16.301Z,3.00
2019-02-18T05:23:44.837Z,3.20
2019-02-18T05:26:13.460Z,3.30
2019-02-18T05:28:42.059Z,3.30
2019-02-18T05:31:10.604Z,3.30
2019-02-18T05:33:39.189Z,3.30
2019-02-18T05:36:07.802Z,3.30
2019-02-18T05:38:36.376Z,3.30
2019-02-18T05:41:05.094Z,3.30
2019-02-18T05:43:33.675Z,3.30
2019-02-18T05:46:02.300Z,3.20
2019-02-18T05:48:33.790Z,3.20
2019-02-18T05:51:01.105Z,3.20
2019-02-18T05:53:29.839Z,3.10
2019-02-18T05:55:58.538Z,3.10
2019-02-18T05:58:27.185Z,3.10
2019-02-18T06:00:55.727Z,3.00
2019-02-18T06:03:24.510Z,3.00
2019-02-18T06:05:53.052Z,3.00
2019-02-18T06:08:21.736Z,3.00
2019-02-18T06:10:51.051Z,3.00
2019-02-18T06:13:19.696Z,3.00
2019-02-18T06:15:48.278Z,3.00
2019-02-18T06:18:16.833Z,3.00
2019-02-18T06:20:45.300Z,3.00
2019-02-18T06:23:14.269Z,3.00
2019-02-18T06:25:42.955Z,3.00
2019-02-18T06:28:11.526Z,3.00
2019-02-18T06:30:40.233Z,3.00
2019-02-18T06:33:08.799Z,3.00
2019-02-18T06:35:40.064Z,3.00
2019-02-18T06:38:08.826Z,3.10
2019-02-18T06:40:37.555Z,3.10
2019-02-18T06:43:06.251Z,3.20
2019-02-18T06:45:37.443Z,3.30
2019-02-18T06:48:08.905Z,3.40
2019-02-18T06:50:37.594Z,3.60
2019-02-18T06:53:06.223Z,3.70
2019-02-18T06:55:34.987Z,3.80
2019-02-18T06:58:07.760Z,3.90
2019-02-18T07:00:40.549Z,4.00
2019-02-18T07:03:23.018Z,4.20
2019-02-18T07:05:55.722Z,4.40
2019-02-18T07:08:28.849Z,4.60
2019-02-18T07:13:53.025Z,4.70
2019-02-18T07:16:21.730Z,4.90
2019-02-18T07:18:50.368Z,5.00
2019-02-18T07:21:19.141Z,5.20
2019-02-18T07:23:47.774Z,5.30
2019-02-18T07:26:16.580Z,5.50
2019-02-18T07:28:45.231Z,5.50
2019-02-18T07:31:13.895Z,5.60
2019-02-18T07:33:42.499Z,5.80
2019-02-18T07:36:11.366Z,6.00
2019-02-18T07:38:39.979Z,6.20
2019-02-18T07:41:08.813Z,6.40
2019-02-18T07:43:37.475Z,6.40
2019-02-18T07:46:06.107Z,6.20
2019-02-18T07:48:36.718Z,6.10
2019-02-18T07:51:05.161Z,6.20
2019-02-18T07:53:33.935Z,6.40
2019-02-18T07:56:02.682Z,6.50
2019-02-18T07:58:31.481Z,6.60
2019-02-18T08:01:00.431Z,6.70
2019-02-18T08:03:29.187Z,6.90
2019-02-18T08:05:57.850Z,7.20
2019-02-18T08:08:27.093Z,7.20
2019-02-18T08:10:55.810Z,7.50
2019-02-18T08:13:26.745Z,8.00
2019-02-18T08:15:54.765Z,8.40
2019-02-18T08:18:23.647Z,8.80
2019-02-18T08:20:54.872Z,9.30
2019-02-18T08:23:25.688Z,8.90
2019-02-18T08:25:54.496Z,9.20
2019-02-18T08:28:23.150Z,9.80
2019-02-18T08:30:51.801Z,9.80
2019-02-18T08:33:20.404Z,10.40
2019-02-18T08:35:49.042Z,10.90
2019-02-18T08:38:17.727Z,11.40
2019-02-18T08:40:46.957Z,11.20
2019-02-18T08:43:15.605Z,11.40
2019-02-18T08:45:44.351Z,11.00
2019-02-18T08:48:13.089Z,11.10
2019-02-18T08:50:41.866Z,11.30
2019-02-18T08:53:10.430Z,11.90
2019-02-18T08:55:39.089Z,12.00
2019-02-18T08:58:07.650Z,13.10
2019-02-18T09:00:36.407Z,13.30
2019-02-18T09:03:05.048Z,13.30
2019-02-18T09:05:33.687Z,12.60
2019-02-18T09:08:02.519Z,13.00
2019-02-18T09:10:33.818Z,12.40
2019-02-18T09:13:01.489Z,12.50
2019-02-18T09:15:30.308Z,12.60
2019-02-18T09:17:58.895Z,13.20
2019-02-18T09:20:27.590Z,14.40
2019-02-18T09:23:00.778Z,14.90
2019-02-18T09:25:37.034Z,14.50
2019-02-18T09:28:05.836Z,15.30
2019-02-18T09:30:36.087Z,15.40
2019-02-18T09:33:05.073Z,14.80
2019-02-18T09:35:33.977Z,14.10
2019-02-18T09:38:02.733Z,14.30
2019-02-18T09:40:32.306Z,14.70
2019-02-18T09:43:01.078Z,15.00
2019-02-18T09:45:29.808Z,15.60
2019-02-18T09:47:58.529Z,16.40
2019-02-18T09:50:27.237Z,16.00
2019-02-18T09:52:55.838Z,16.00
2019-02-18T09:55:24.595Z,15.80
2019-02-18T09:57:53.290Z,16.40
2019-02-18T10:00:21.991Z,16.20
2019-02-18T10:02:50.694Z,16.50
2019-02-18T10:05:19.779Z,15.50
2019-02-18T10:07:48.594Z,16.00
2019-02-18T10:10:19.159Z,17.50
2019-02-18T10:12:47.842Z,17.70
2019-02-18T10:15:16.619Z,17.40
2019-02-18T10:17:45.369Z,17.20
2019-02-18T10:20:14.703Z,18.20
2019-02-18T10:22:43.424Z,18.30
2019-02-18T10:25:13.387Z,18.50
2019-02-18T10:27:42.076Z,18.00
2019-02-18T10:30:12.463Z,19.00
2019-02-18T10:32:41.033Z,19.60
2019-02-18T10:35:14.151Z,18.50
2019-02-18T10:37:43.243Z,20.50
2019-02-18T10:40:12.476Z,20.50
2019-02-18T10:42:41.187Z,20.10
2019-02-18T10:45:12.466Z,21.10
2019-02-18T10:47:41.210Z,21.30
2019-02-18T10:50:11.711Z,20.20
2019-02-18T10:52:40.539Z,19.70
2019-02-18T10:55:10.417Z,21.00
2019-02-18T10:57:39.571Z,21.10
2019-02-18T11:00:13.551Z,20.90
2019-02-18T11:02:42.206Z,22.20
2019-02-18T11:05:10.965Z,21.70
2019-02-18T11:07:39.653Z,22.10
2019-02-18T11:10:15.684Z,21.90
2019-02-18T11:12:44.423Z,21.20
2019-02-18T11:15:14.123Z,21.30
2019-02-18T11:17:43.156Z,20.90
2019-02-18T11:20:13.157Z,21.70
2019-02-18T11:22:42.866Z,22.00
2019-02-18T11:25:14.630Z,22.70
2019-02-18T11:27:43.339Z,22.80
2019-02-18T11:30:19.414Z,23.50
2019-02-18T11:32:51.153Z,21.40
2019-02-18T11:35:19.827Z,22.40
2019-02-18T11:37:48.510Z,23.00
2019-02-18T11:40:18.275Z,23.50
2019-02-18T11:42:47.010Z,23.60
2019-02-18T11:45:16.800Z,22.40
2019-02-18T11:47:45.479Z,21.80
2019-02-18T11:50:15.726Z,22.90
2019-02-18T11:52:44.450Z,20.40
2019-02-18T11:55:13.914Z,21.10
2019-02-18T11:57:42.890Z,22.70
2019-02-18T12:00:15.822Z,21.50
2019-02-18T12:02:44.390Z,21.70
2019-02-18T12:05:13.286Z,23.80
2019-02-18T12:07:41.985Z,23.30
2019-02-18T12:10:12.761Z,22.40
2019-02-18T12:12:41.713Z,22.80
2019-02-18T12:15:13.337Z,23.30
2019-02-18T12:17:42.130Z,23.50
2019-02-18T12:20:18.189Z,22.70
2019-02-18T12:23:06.218Z,21.50
2019-02-18T12:25:34.811Z,19.70
2019-02-18T12:28:03.472Z,18.30
2019-02-18T12:30:32.579Z,17.20
2019-02-18T12:33:01.351Z,16.60
2019-02-18T12:35:31.423Z,16.00
2019-02-18T12:38:00.214Z,15.40
2019-02-18T12:40:28.979Z,15.20
2019-02-18T12:43:02.371Z,14.60
2019-02-18T12:45:31.070Z,14.30
2019-02-18T12:47:59.895Z,14.40
2019-02-18T12:50:28.679Z,14.00
2019-02-18T12:52:57.522Z,13.80
2019-02-18T12:55:26.251Z,13.80
2019-02-18T12:57:56.670Z,13.60
2019-02-18T13:00:25.693Z,13.70
2019-02-18T13:02:54.490Z,13.70
2019-02-18T13:05:23.613Z,13.60
2019-02-18T13:07:52.347Z,13.70
2019-02-18T13:10:21.354Z,13.90
2019-02-18T13:12:50.106Z,13.80
2019-02-18T13:15:19.025Z,13.70
2019-02-18T13:17:47.683Z,13.80
2019-02-18T13:20:16.388Z,13.70
2019-02-18T13:22:45.009Z,13.80
2019-02-18T13:25:13.898Z,13.80
2019-02-18T13:27:42.744Z,13.70
2019-02-18T13:30:14.016Z,13.80
2019-02-18T13:32:42.714Z,13.80
2019-02-18T13:35:11.381Z,13.70
2019-02-18T13:37:40.150Z,13.60
2019-02-18T13:40:09.461Z,13.60
2019-02-18T13:42:38.059Z,13.50
2019-02-18T13:45:08.250Z,13.60
2019-02-18T13:47:36.962Z,13.60
2019-02-18T13:50:11.331Z,13.50
2019-02-18T13:52:40.085Z,13.50
2019-02-18T13:55:11.394Z,13.50
2019-02-18T13:57:40.773Z,13.70
2019-02-18T14:00:18.832Z,13.70
2019-02-18T14:02:48.225Z,13.70
2019-02-18T14:05:17.911Z,13.80
2019-02-18T14:07:46.724Z,13.70
2019-02-18T14:10:16.625Z,13.60
2019-02-18T14:12:47.645Z,13.60
2019-02-18T14:15:17.434Z,13.50
2019-02-18T14:17:46.318Z,13.60
2019-02-18T14:20:17.026Z,13.70
2019-02-18T14:22:46.086Z,13.70
2019-02-18T14:25:15.445Z,13.70
2019-02-18T14:27:46.120Z,13.60
2019-02-18T14:30:16.855Z,13.70
2019-02-18T14:32:45.610Z,13.60
2019-02-18T14:35:16.405Z,13.60
2019-02-18T14:37:45.629Z,13.50
2019-02-18T14:40:17.646Z,13.60
2019-02-18T14:42:46.440Z,13.50
2019-02-18T14:45:15.713Z,13.60
2019-02-18T14:47:44.426Z,13.60
2019-02-18T14:50:14.910Z,13.60
2019-02-18T14:52:43.822Z,13.40
2019-02-18T14:55:12.636Z,13.30
2019-02-18T14:57:41.366Z,13.20
2019-02-18T15:00:17.010Z,13.20
2019-02-18T15:02:45.734Z,13.30
2019-02-18T15:05:14.677Z,13.40
2019-02-18T15:07:43.788Z,13.30
2019-02-18T15:10:13.670Z,13.30
2019-02-18T15:12:42.329Z,13.30
2019-02-18T15:15:11.247Z,13.30
2019-02-18T15:17:39.850Z,13.20
2019-02-18T15:20:09.160Z,13.10
2019-02-18T15:22:38.849Z,13.10
2019-02-18T15:25:09.402Z,13.00
2019-02-18T15:27:38.154Z,12.90
2019-02-18T15:30:16.153Z,12.90
2019-02-18T15:32:45.007Z,12.90
2019-02-18T15:35:15.164Z,12.80
2019-02-18T15:37:43.834Z,12.80
2019-02-18T15:40:14.208Z,12.70
2019-02-18T15:42:42.862Z,12.70
2019-02-18T15:45:12.536Z,12.60
2019-02-18T15:47:41.279Z,12.60
2019-02-18T15:50:12.030Z,12.50
2019-02-18T15:52:40.678Z,12.50
2019-02-18T15:55:10.796Z,12.40
2019-02-18T15:57:39.495Z,12.30
2019-02-18T16:00:17.827Z,12.30
2019-02-18T16:02:46.838Z,12.30
2019-02-18T16:05:15.649Z,12.20
2019-02-18T16:07:44.332Z,12.10
2019-02-18T16:10:14.030Z,12.00
2019-02-18T16:12:50.232Z,12.00
2019-02-18T16:15:13.080Z,11.90
2019-02-18T16:17:42.102Z,11.80
2019-02-18T16:20:12.693Z,11.80
2019-02-18T16:22:41.359Z,11.70
2019-02-18T16:25:13.080Z,11.70
2019-02-18T16:27:41.656Z,11.70
2019-02-18T16:30:13.015Z,11.50
2019-02-18T16:32:42.020Z,11.50
2019-02-18T16:35:11.450Z,11.40
2019-02-18T16:37:40.426Z,11.40
2019-02-18T16:40:14.534Z,11.30
2019-02-18T16:42:43.170Z,11.20
2019-02-18T16:45:13.980Z,11.20
2019-02-18T16:47:42.668Z,11.10
2019-02-18T16:50:11.531Z,11.00
2019-02-18T16:52:40.122Z,11.00
2019-02-18T16:55:11.102Z,11.00
2019-02-18T16:57:39.736Z,10.90
2019-02-18T17:00:21.964Z,10.80
2019-02-18T17:02:51.101Z,10.80
2019-02-18T17:05:19.937Z,10.80
2019-02-18T17:07:48.721Z,10.70
2019-02-18T17:10:17.413Z,10.60
2019-02-18T17:12:46.513Z,10.70
2019-02-18T17:15:15.254Z,10.60
2019-02-18T17:17:44.478Z,10.50
2019-02-18T17:20:13.295Z,10.50
2019-02-18T17:22:42.055Z,10.40
2019-02-18T17:25:12.289Z,10.40
2019-02-18T17:27:40.984Z,10.40
2019-02-18T17:30:14.958Z,10.30
2019-02-18T17:32:43.807Z,10.20
2019-02-18T17:35:14.008Z,10.20
2019-02-18T17:37:42.637Z,10.20
2019-02-18T17:40:16.126Z,10.10
2019-02-18T17:42:45.211Z,10.10
2019-02-18T17:45:16.002Z,10.00
2019-02-18T17:47:44.712Z,10.00
2019-02-18T17:50:17.233Z,9.90
2019-02-18T17:52:46.629Z,9.90
2019-02-18T17:55:16.963Z,9.80
2019-02-18T17:57:45.699Z,9.80
2019-02-18T18:00:22.919Z,9.70
2019-02-18T18:02:51.744Z,9.70
2019-02-18T18:05:20.466Z,9.70
2019-02-18T18:07:49.194Z,9.70
2019-02-18T18:10:19.457Z,9.70
2019-02-18T18:12:48.186Z,9.60
2019-02-18T18:15:18.483Z,9.60
2019-02-18T18:17:58.611Z,9.50
2019-02-18T18:20:28.068Z,9.50
2019-02-18T18:22:57.165Z,9.40
2019-02-18T18:25:25.855Z,9.40
2019-02-18T18:27:54.533Z,9.30
2019-02-18T18:30:23.163Z,9.40
2019-02-18T18:32:51.872Z,9.30
2019-02-18T18:35:20.559Z,9.30
2019-02-18T18:37:49.185Z,9.20
2019-02-18T18:40:20.183Z,9.10
2019-02-18T18:42:48.825Z,9.00
2019-02-18T18:45:18.326Z,9.00
2019-02-18T18:47:46.983Z,9.00
2019-02-18T18:50:27.290Z,9.00
2019-02-18T18:52:56.159Z,8.90
2019-02-18T18:55:24.882Z,9.00
2019-02-18T18:57:53.597Z,8.90
2019-02-18T19:00:25.783Z,8.90
2019-02-18T19:02:54.477Z,8.80
2019-02-18T19:05:23.564Z,8.80
2019-02-18T19:07:52.255Z,8.90
2019-02-18T19:10:20.949Z,8.90
2019-02-18T19:12:49.604Z,8.80
2019-02-18T19:15:20.950Z,8.80
2019-02-18T19:17:49.919Z,8.70
2019-02-18T19:20:18.553Z,8.60
2019-02-18T19:22:47.189Z,8.60
2019-02-18T19:25:15.924Z,8.60
2019-02-18T19:27:44.605Z,8.60
2019-02-18T19:30:24.890Z,8.60
2019-02-18T19:32:53.644Z,8.50
2019-02-18T19:35:22.281Z,8.40
2019-02-18T19:37:51.142Z,8.30
2019-02-18T19:40:19.908Z,8.30
2019-02-18T19:42:48.519Z,8.20
2019-02-18T19:45:24.664Z,8.20
2019-02-18T19:47:53.304Z,8.10
2019-02-18T19:50:22.077Z,8.10
2019-02-18T19:52:50.620Z,8.00
2019-02-18T19:55:19.404Z,8.00
2019-02-18T19:57:48.546Z,7.90
2019-02-18T20:00:19.101Z,7.90
2019-02-18T20:02:48.038Z,7.80
2019-02-18T20:05:16.818Z,7.80
2019-02-18T20:07:45.506Z,7.80
2019-02-18T20:10:14.348Z,7.70
2019-02-18T20:12:42.976Z,7.60
2019-02-18T20:15:16.632Z,7.60
2019-02-18T20:17:45.342Z,7.60
2019-02-18T20:20:16.379Z,7.60
2019-02-18T20:22:45.172Z,7.50
2019-02-18T20:25:13.952Z,7.50
2019-02-18T20:27:42.734Z,7.50
2019-02-18T20:30:16.056Z,7.40
2019-02-18T20:32:44.816Z,7.40
2019-02-18T20:35:13.739Z,7.20
2019-02-18T20:37:42.359Z,7.20
2019-02-18T20:40:11.747Z,7.20
2019-02-18T20:42:40.685Z,7.10
2019-02-18T20:45:12.299Z,7.10
2019-02-18T20:47:41.019Z,7.10
2019-02-18T20:50:11.777Z,7.10
2019-02-18T20:52:40.533Z,7.00
2019-02-18T20:55:11.794Z,7.00
2019-02-18T20:57:40.504Z,7.00
2019-02-18T21:00:14.633Z,7.00
2019-02-18T21:02:43.229Z,6.90
2019-02-18T21:05:11.860Z,6.90
2019-02-18T21:07:40.540Z,6.80
2019-02-18T21:10:17.671Z,6.80
2019-02-18T21:12:46.433Z,6.70
2019-02-18T21:15:15.201Z,6.70
2019-02-18T21:17:43.791Z,6.70
2019-02-18T21:20:13.891Z,6.60
2019-02-18T21:22:42.497Z,6.60
2019-02-18T21:25:11.619Z,6.50
2019-02-18T21:27:40.241Z,6.50
2019-02-18T21:30:14.618Z,6.40
2019-02-18T21:32:43.158Z,6.40
2019-02-18T21:35:11.980Z,6.30
2019-02-18T21:37:41.095Z,6.30
2019-02-18T21:40:10.903Z,6.20
2019-02-18T21:42:39.526Z,6.20
2019-02-18T21:45:13.152Z,6.20
2019-02-18T21:47:41.846Z,6.20
2019-02-18T21:50:11.433Z,6.20
2019-02-18T21:52:40.423Z,6.10
2019-02-18T21:55:10.622Z,6.10
2019-02-18T21:57:39.278Z,6.10
2019-02-18T22:00:12.640Z,6.00
2019-02-18T22:02:41.325Z,6.00
2019-02-18T22:05:10.062Z,5.90
2019-02-18T22:07:38.687Z,5.90
2019-02-18T22:10:09.138Z,5.80
2019-02-18T22:12:37.883Z,5.80
2019-02-18T22:15:08.388Z,5.80
2019-02-18T22:17:37.429Z,5.70
2019-02-18T22:20:08.936Z,5.70
2019-02-18T22:22:37.781Z,5.70
2019-02-18T22:25:09.520Z,5.70
2019-02-18T22:27:38.738Z,5.70
2019-02-18T22:30:13.246Z,5.70
2019-02-18T22:32:41.955Z,5.60
2019-02-18T22:35:10.753Z,5.60
2019-02-18T22:37:39.516Z,5.60
2019-02-18T22:40:10.154Z,5.60
2019-02-18T22:42:38.836Z,5.60
2019-02-18T22:45:10.069Z,5.60
2019-02-18T22:47:38.788Z,5.60
2019-02-18T22:50:10.263Z,5.60
2019-02-18T22:52:38.963Z,5.60
2019-02-18T22:55:09.635Z,5.60
2019-02-18T22:57:38.273Z,5.50
2019-02-18T23:00:28.288Z,5.50
2019-02-18T23:02:57.229Z,5.40
2019-02-18T23:05:25.938Z,5.40
2019-02-18T23:07:54.562Z,5.40
2019-02-18T23:10:23.447Z,5.30
2019-02-18T23:12:52.011Z,5.20
2019-02-18T23:15:20.678Z,5.10
2019-02-18T23:17:49.247Z,5.20
2019-02-18T23:20:17.835Z,5.10
2019-02-18T23:22:46.496Z,5.10
2019-02-18T23:25:15.123Z,5.10
2019-02-18T23:27:43.685Z,5.10
2019-02-18T23:30:12.385Z,5.00
2019-02-18T23:32:41.059Z,5.00
2019-02-18T23:35:10.128Z,4.90
2019-02-18T23:37:38.657Z,4.90
2019-02-18T23:40:07.392Z,4.80
2019-02-18T23:42:36.429Z,4.80
2019-02-18T23:45:05.220Z,4.90
2019-02-18T23:47:33.754Z,4.90
2019-02-18T23:50:02.410Z,5.00
2019-02-18T23:52:30.921Z,5.00
2019-02-18T23:54:59.442Z,5.10
2019-02-18T23:57:28.542Z,5.20
2019-02-18T23:59:57.070Z,5.10
